Time;durP1;ratioP1;P1;durP2;ratioP2;P2;SDS_P1;SDS_P2;PMS_P1;PMS_P2;Temp;Humidity;BMP_temperature;BMP_pressure;BME280_temperature;BME280_humidity;BME280_pressure;Samples;Min_cycle;Max_cycle;Signal;HPM_P1;HPM_P2
2022/07/24 00:01:35;;;;;;;15.25;14.15;;;15.90;99.90;;;;;;5051005;28;20916;-60
2022/07/24 00:04:02;;;;;;;16.33;14.93;;;15.90;99.90;;;;;;5051398;28;20033;-60
2022/07/24 00:06:27;;;;;;;16.25;14.95;;;15.80;99.90;;;;;;5050313;28;20033;-59
2022/07/24 00:08:53;;;;;;;16.80;15.25;;;15.70;99.90;;;;;;5049933;28;20388;-60
2022/07/24 00:11:19;;;;;;;16.60;15.13;;;15.70;99.90;;;;;;5051286;28;20615;-60
2022/07/24 00:13:45;;;;;;;16.33;15.02;;;15.70;99.90;;;;;;5050824;28;20060;-60
2022/07/24 00:16:10;;;;;;;17.10;15.80;;;15.60;99.90;;;;;;5050452;28;20025;-60
2022/07/24 00:18:36;;;;;;;16.40;15.18;;;15.60;99.90;;;;;;5051756;28;20465;-60
2022/07/24 00:21:02;;;;;;;16.73;15.52;;;15.50;99.90;;;;;;5049767;28;20067;-60
2022/07/24 00:23:28;;;;;;;15.77;14.40;;;15.50;99.90;;;;;;5049888;28;20100;-60
2022/07/24 00:25:54;;;;;;;16.23;14.60;;;15.50;99.90;;;;;;5047816;28;20535;-60
2022/07/24 00:28:20;;;;;;;16.73;15.10;;;15.50;99.90;;;;;;5051050;28;20051;-60
2022/07/24 00:30:46;;;;;;;17.23;15.80;;;15.40;99.90;;;;;;5050865;28;20032;-60
2022/07/24 00:33:12;;;;;;;16.40;15.10;;;15.40;99.90;;;;;;5048716;28;20041;-61
2022/07/24 00:35:38;;;;;;;15.48;14.27;;;15.30;99.90;;;;;;5050209;28;20037;-60
2022/07/24 00:38:03;;;;;;;14.35;13.30;;;15.30;99.90;;;;;;5048063;28;20527;-60
2022/07/24 00:40:29;;;;;;;15.63;14.52;;;15.30;99.90;;;;;;5049595;28;20045;-60
2022/07/24 00:42:56;;;;;;;16.48;15.10;;;15.30;99.90;;;;;;5048710;28;20040;-60
2022/07/24 00:45:22;;;;;;;17.35;15.95;;;15.30;99.90;;;;;;5050556;28;20017;-60
2022/07/24 00:47:49;;;;;;;16.02;14.73;;;15.30;99.90;;;;;;5050497;28;20036;-60
2022/07/24 00:50:14;;;;;;;18.95;17.40;;;15.30;99.90;;;;;;5048803;28;20060;-59
2022/07/24 00:52:42;;;;;;;18.52;16.95;;;15.30;99.90;;;;;;5050287;28;20056;-60
2022/07/24 00:55:08;;;;;;;18.48;16.52;;;15.30;99.90;;;;;;5047023;28;20056;-60
2022/07/24 00:57:34;;;;;;;16.88;15.48;;;15.20;99.90;;;;;;5050168;28;20052;-60
2022/07/24 01:00:00;;;;;;;17.40;16.10;;;15.20;99.90;;;;;;5048900;28;20060;-60
2022/07/24 01:02:25;;;;;;;17.38;16.17;;;15.10;99.90;;;;;;5050253;28;20396;-60
2022/07/24 01:04:51;;;;;;;17.98;16.45;;;15.10;99.90;;;;;;5049354;28;20065;-60
2022/07/24 01:07:17;;;;;;;19.27;17.73;;;15.00;99.90;;;;;;5047546;28;20029;-60
2022/07/24 01:09:43;;;;;;;17.75;16.23;;;14.90;99.90;;;;;;5049007;28;20021;-60
2022/07/24 01:12:09;;;;;;;17.58;16.08;;;14.90;99.90;;;;;;5049041;28;20029;-60
2022/07/24 01:14:35;;;;;;;17.35;16.15;;;14.80;99.90;;;;;;5050188;28;20044;-60
2022/07/24 01:17:01;;;;;;;17.98;16.17;;;14.70;99.90;;;;;;5048815;28;20021;-60
2022/07/24 01:19:27;;;;;;;19.27;17.77;;;14.60;99.90;;;;;;5051155;28;20035;-60
2022/07/24 01:21:54;;;;;;;18.75;17.33;;;14.60;99.90;;;;;;5049852;28;20017;-60
2022/07/24 01:24:20;;;;;;;17.50;15.77;;;14.60;99.90;;;;;;5048645;28;20480;-60
2022/07/24 01:26:47;;;;;;;18.55;17.00;;;14.60;99.90;;;;;;5047825;28;20029;-60
2022/07/24 01:29:13;;;;;;;18.70;17.00;;;14.60;99.90;;;;;;5048293;28;20029;-60
2022/07/24 01:31:42;;;;;;;18.23;16.83;;;14.60;99.90;;;;;;5049297;28;20542;-60
2022/07/24 01:34:08;;;;;;;18.30;16.83;;;14.60;99.90;;;;;;5048969;28;20104;-59
2022/07/24 01:36:33;;;;;;;20.38;18.63;;;14.60;99.90;;;;;;5049782;28;20108;-59
2022/07/24 01:38:59;;;;;;;18.80;17.40;;;14.60;99.90;;;;;;5049367;28;20076;-60
2022/07/24 01:41:25;;;;;;;21.30;19.17;;;14.60;99.90;;;;;;5048789;28;20033;-60
2022/07/24 01:43:50;;;;;;;19.77;18.10;;;14.70;99.90;;;;;;5049697;28;20547;-60
2022/07/24 01:46:16;;;;;;;17.67;16.38;;;14.70;99.90;;;;;;5048694;28;20032;-60
2022/07/24 01:48:43;;;;;;;19.80;18.40;;;14.70;99.90;;;;;;5050188;28;20128;-60
2022/07/24 01:51:11;;;;;;;17.85;16.55;;;14.80;99.90;;;;;;5048968;28;20029;-60
2022/07/24 01:53:37;;;;;;;17.63;16.23;;;14.80;99.90;;;;;;5048806;28;20033;-60
2022/07/24 01:56:03;;;;;;;18.20;16.73;;;14.80;99.90;;;;;;5048924;28;20044;-60
2022/07/24 01:58:29;;;;;;;20.45;18.38;;;14.70;99.90;;;;;;5046662;28;20080;-60
2022/07/24 02:00:55;;;;;;;18.88;17.02;;;14.70;99.90;;;;;;5049346;28;20025;-60
2022/07/24 02:03:21;;;;;;;18.67;17.10;;;14.80;99.90;;;;;;5048733;28;20099;-59
2022/07/24 02:05:47;;;;;;;16.38;14.88;;;14.80;99.90;;;;;;5047934;28;20029;-59
2022/07/24 02:08:13;;;;;;;16.52;15.13;;;14.70;99.90;;;;;;5048201;28;20029;-60
2022/07/24 02:10:39;;;;;;;17.48;16.23;;;14.70;99.90;;;;;;5048063;28;20092;-60
2022/07/24 02:13:05;;;;;;;18.63;16.52;;;14.60;99.90;;;;;;5048001;28;20431;-60
2022/07/24 02:15:30;;;;;;;16.40;15.20;;;14.50;99.90;;;;;;5048940;28;20020;-60
2022/07/24 02:17:58;;;;;;;19.27;17.77;;;14.50;99.90;;;;;;5048877;28;20040;-60
2022/07/24 02:20:25;;;;;;;17.20;15.85;;;14.50;99.90;;;;;;5048507;28;20037;-60
2022/07/24 02:22:51;;;;;;;19.33;17.65;;;14.50;99.90;;;;;;5048447;28;20060;-60
2022/07/24 02:25:16;;;;;;;17.90;16.60;;;14.50;99.90;;;;;;5049032;28;20067;-60
2022/07/24 02:27:43;;;;;;;18.30;16.90;;;14.50;99.90;;;;;;5048267;28;20432;-60
2022/07/24 02:30:14;;;;;;;17.67;16.38;;;14.50;99.90;;;;;;5047955;28;20048;-60
2022/07/24 02:32:40;;;;;;;20.33;18.45;;;14.50;99.90;;;;;;5047598;28;20488;-59
2022/07/24 02:35:06;;;;;;;19.90;18.38;;;14.50;99.90;;;;;;5048138;28;20120;-60
2022/07/24 02:37:35;;;;;;;17.60;16.10;;;14.50;99.90;;;;;;5048310;28;20052;-59
2022/07/24 02:40:01;;;;;;;16.83;15.18;;;14.50;99.90;;;;;;5046974;28;20056;-60
2022/07/24 02:42:26;;;;;;;17.67;15.68;;;14.50;99.90;;;;;;5048608;28;20052;-60
2022/07/24 02:44:52;;;;;;;15.27;14.07;;;14.40;99.90;;;;;;5045968;28;20120;-59
2022/07/24 02:47:17;;;;;;;16.13;14.75;;;14.40;99.90;;;;;;5047363;28;20033;-60
2022/07/24 02:49:43;;;;;;;16.65;15.27;;;14.30;99.90;;;;;;5047118;28;20025;-59
2022/07/24 02:52:09;;;;;;;16.98;15.48;;;14.30;99.90;;;;;;5047848;28;20029;-60
2022/07/24 02:54:34;;;;;;;16.75;15.27;;;14.20;99.90;;;;;;5048864;28;20037;-60
2022/07/24 02:57:00;;;;;;;16.65;15.07;;;14.20;99.90;;;;;;5047160;28;20033;-59
2022/07/24 02:59:25;;;;;;;17.60;16.00;;;14.10;99.90;;;;;;5047451;28;20041;-60
2022/07/24 03:01:51;;;;;;;17.48;15.88;;;14.10;99.90;;;;;;5047759;28;20033;-59
2022/07/24 03:04:17;;;;;;;18.30;16.60;;;14.10;99.90;;;;;;5048142;28;20033;-59
2022/07/24 03:06:42;;;;;;;16.40;15.00;;;14.00;99.90;;;;;;5047923;28;20021;-60
2022/07/24 03:09:08;;;;;;;16.05;14.93;;;14.00;99.90;;;;;;5048425;28;20127;-60
2022/07/24 03:11:34;;;;;;;15.75;14.45;;;13.90;99.90;;;;;;5048748;28;20443;-60
2022/07/24 03:13:59;;;;;;;17.38;16.08;;;13.90;99.90;;;;;;5047897;28;20531;-59
2022/07/24 03:16:25;;;;;;;18.98;17.52;;;13.80;99.90;;;;;;5048415;28;20479;-59
2022/07/24 03:18:50;;;;;;;19.52;18.00;;;13.70;99.90;;;;;;5047844;28;20473;-59
2022/07/24 03:21:17;;;;;;;18.90;17.05;;;13.60;99.90;;;;;;5048525;28;20032;-60
2022/07/24 03:23:43;;;;;;;19.23;17.48;;;13.60;99.90;;;;;;5049543;28;20477;-60
2022/07/24 03:26:09;;;;;;;19.95;18.45;;;13.50;99.90;;;;;;5052468;28;20040;-60
2022/07/24 03:28:35;;;;;;;20.30;18.58;;;13.40;99.90;;;;;;5051683;28;20419;-60
2022/07/24 03:31:01;;;;;;;20.33;18.83;;;13.40;99.90;;;;;;5051582;28;20037;-60
2022/07/24 03:33:28;;;;;;;20.40;17.88;;;13.40;99.90;;;;;;5052099;28;20025;-59
2022/07/24 03:35:53;;;;;;;19.25;17.75;;;13.30;99.90;;;;;;5051310;28;20563;-60
2022/07/24 03:38:19;;;;;;;20.45;18.83;;;13.40;99.90;;;;;;5052091;28;20033;-60
2022/07/24 03:40:45;;;;;;;22.63;20.77;;;13.40;99.90;;;;;;5051701;28;20041;-60
2022/07/24 03:43:10;;;;;;;22.27;20.40;;;13.40;99.90;;;;;;5052283;28;20027;-60
2022/07/24 03:45:36;;;;;;;22.70;20.42;;;13.40;99.90;;;;;;5052326;28;20105;-60
2022/07/24 03:48:02;;;;;;;23.52;21.52;;;13.50;99.90;;;;;;5050811;28;20044;-60
2022/07/24 03:50:28;;;;;;;24.50;22.23;;;13.50;99.90;;;;;;5051976;28;20498;-60
2022/07/24 03:52:54;;;;;;;24.88;22.55;;;13.50;99.90;;;;;;5051542;28;20516;-60
2022/07/24 03:55:20;;;;;;;23.52;21.52;;;13.60;99.90;;;;;;5051636;28;20064;-60
2022/07/24 03:57:45;;;;;;;22.05;20.25;;;13.60;99.90;;;;;;5051138;28;20396;-60
2022/07/24 04:00:12;;;;;;;23.15;21.02;;;13.60;99.90;;;;;;5050980;28;20068;-60
2022/07/24 04:02:37;;;;;;;23.00;20.83;;;13.60;99.90;;;;;;5050643;28;20100;-59
2022/07/24 04:05:07;;;;;;;21.30;19.45;;;13.70;99.90;;;;;;5051518;28;20073;-60
2022/07/24 04:07:32;;;;;;;22.17;20.27;;;13.70;99.90;;;;;;5049553;28;20109;-59
2022/07/24 04:09:58;;;;;;;21.20;19.35;;;13.80;99.90;;;;;;5050737;28;20096;-61
2022/07/24 04:12:23;;;;;;;20.05;18.38;;;13.80;99.90;;;;;;5051873;28;20029;-60
2022/07/24 04:14:49;;;;;;;21.35;19.25;;;13.80;99.90;;;;;;5050825;28;20504;-60
2022/07/24 04:17:15;;;;;;;18.95;17.45;;;13.90;99.90;;;;;;5050737;28;20065;-60
2022/07/24 04:19:40;;;;;;;19.23;17.55;;;13.90;99.90;;;;;;5050492;28;20056;-59
2022/07/24 04:22:06;;;;;;;20.48;18.88;;;13.90;99.90;;;;;;5051206;28;20108;-60
2022/07/24 04:24:32;;;;;;;21.00;19.10;;;13.90;99.90;;;;;;5051838;28;20408;-60
2022/07/24 04:26:57;;;;;;;18.27;16.55;;;14.00;99.90;;;;;;5050112;28;20491;-60
2022/07/24 04:29:23;;;;;;;17.83;16.33;;;14.00;99.90;;;;;;5050759;28;20021;-60
2022/07/24 04:31:49;;;;;;;18.35;16.85;;;14.00;99.90;;;;;;5049097;28;20070;-60
2022/07/24 04:34:14;;;;;;;18.08;16.30;;;14.10;99.90;;;;;;5050677;28;20543;-60
2022/07/24 04:36:40;;;;;;;19.63;17.83;;;14.10;99.90;;;;;;5050010;28;20140;-60
2022/07/24 04:39:06;;;;;;;18.77;16.95;;;14.20;99.90;;;;;;5050648;28;20037;-59
2022/07/24 04:41:31;;;;;;;19.65;17.77;;;14.20;99.90;;;;;;5050274;28;20026;-60
2022/07/24 04:43:57;;;;;;;18.58;17.10;;;14.20;99.90;;;;;;5047813;28;20037;-60
2022/07/24 04:46:23;;;;;;;19.17;17.50;;;14.30;99.90;;;;;;5031421;28;20025;-60
2022/07/24 04:48:48;;;;;;;19.58;18.08;;;14.40;99.90;;;;;;5050514;28;20021;-60
2022/07/24 04:51:14;;;;;;;20.25;18.60;;;14.40;99.90;;;;;;5050502;28;20029;-60
2022/07/24 04:53:40;;;;;;;19.58;17.95;;;14.50;99.90;;;;;;5049983;28;20036;-60
2022/07/24 04:56:06;;;;;;;19.85;18.25;;;14.50;99.90;;;;;;5050305;28;20079;-60
2022/07/24 04:58:31;;;;;;;19.50;18.00;;;14.60;99.90;;;;;;5049554;28;21016;-60
2022/07/24 05:00:57;;;;;;;18.48;17.08;;;14.60;99.90;;;;;;5049718;28;20037;-60
2022/07/24 05:03:23;;;;;;;17.17;15.90;;;14.70;99.90;;;;;;5050384;28;20362;-59
2022/07/24 05:05:48;;;;;;;16.88;15.57;;;14.80;99.90;;;;;;5049536;28;20022;-60
2022/07/24 05:08:14;;;;;;;19.83;18.27;;;15.00;99.90;;;;;;5049809;28;20037;-60
2022/07/24 05:10:40;;;;;;;18.48;16.98;;;15.10;99.90;;;;;;5049555;28;20076;-60
2022/07/24 05:13:05;;;;;;;19.00;17.42;;;15.40;99.90;;;;;;5050929;28;20392;-60
2022/07/24 05:15:31;;;;;;;20.00;18.33;;;15.80;99.90;;;;;;5049679;28;20075;-60
2022/07/24 05:17:57;;;;;;;19.67;16.13;;;16.30;99.90;;;;;;5049622;28;20029;-60
2022/07/24 05:20:22;;;;;;;17.13;15.50;;;17.20;99.90;;;;;;5047207;28;20516;-59
2022/07/24 05:22:48;;;;;;;18.30;16.90;;;18.30;99.90;;;;;;5049212;28;20029;-60
2022/07/24 05:25:14;;;;;;;16.65;15.23;;;19.40;99.90;;;;;;5047679;28;20056;-60
2022/07/24 05:27:39;;;;;;;14.82;13.63;;;20.30;99.90;;;;;;5032028;28;20025;-61
2022/07/24 05:30:07;;;;;;;14.25;13.00;;;21.30;99.90;;;;;;5048836;28;20029;-60
2022/07/24 05:32:32;;;;;;;13.80;12.70;;;22.30;99.90;;;;;;5049389;28;20101;-60
2022/07/24 05:34:58;;;;;;;13.13;12.10;;;23.10;99.90;;;;;;5049463;28;20029;-61
2022/07/24 05:37:24;;;;;;;13.25;12.15;;;23.80;99.90;;;;;;5048578;28;20026;-61
2022/07/24 05:39:49;;;;;;;12.52;11.32;;;24.60;91.60;;;;;;5050053;28;20523;-61
2022/07/24 05:42:16;;;;;;;12.20;11.40;;;25.00;91.90;;;;;;5048969;28;20041;-61
2022/07/24 05:44:42;;;;;;;13.00;11.73;;;25.70;82.10;;;;;;5046563;28;20025;-61
2022/07/24 05:47:07;;;;;;;12.57;11.50;;;26.30;79.70;;;;;;5047243;28;20052;-61
2022/07/24 05:49:33;;;;;;;11.68;10.90;;;26.70;75.10;;;;;;5048645;28;20165;-61
2022/07/24 05:51:59;;;;;;;11.18;10.35;;;27.30;72.00;;;;;;5044461;28;20025;-62
2022/07/24 05:54:25;;;;;;;10.52;9.65;;;27.50;67.90;;;;;;5048713;28;20250;-60
2022/07/24 05:56:51;;;;;;;10.77;10.00;;;27.40;67.40;;;;;;5048901;28;20060;-60
2022/07/24 05:59:17;;;;;;;11.00;10.20;;;27.90;65.90;;;;;;5047181;28;20116;-59
2022/07/24 06:01:42;;;;;;;10.88;9.82;;;28.90;63.60;;;;;;5048410;28;20025;-59
2022/07/24 06:04:08;;;;;;;10.05;9.07;;;29.30;62.30;;;;;;5048559;28;20025;-59
2022/07/24 06:06:34;;;;;;;10.55;9.63;;;29.70;59.60;;;;;;5046599;28;20025;-59
2022/07/24 06:08:59;;;;;;;9.60;8.90;;;29.80;59.90;;;;;;5048746;28;20033;-60
2022/07/24 06:11:25;;;;;;;9.65;8.77;;;29.80;59.10;;;;;;5049581;28;20025;-60
2022/07/24 06:13:51;;;;;;;10.30;9.25;;;30.10;57.60;;;;;;5030161;28;20028;-59
2022/07/24 06:16:16;;;;;;;12.52;11.45;;;30.50;57.60;;;;;;5032064;28;20033;-60
2022/07/24 06:18:42;;;;;;;10.13;9.25;;;31.10;55.50;;;;;;5048876;28;20095;-62
2022/07/24 06:21:07;;;;;;;9.18;8.30;;;31.60;54.00;;;;;;5048281;28;20029;-62
2022/07/24 06:23:33;;;;;;;12.65;10.85;;;31.40;53.20;;;;;;5047445;28;20025;-62
2022/07/24 06:25:59;;;;;;;7.57;6.93;;;31.00;54.40;;;;;;5047282;28;20025;-62
2022/07/24 06:28:25;;;;;;;8.93;8.32;;;30.90;53.40;;;;;;5046501;28;20021;-60
2022/07/24 06:30:51;;;;;;;7.57;7.00;;;31.40;53.60;;;;;;5049067;28;20032;-60
2022/07/24 06:33:16;;;;;;;7.63;6.78;;;31.70;52.60;;;;;;5048480;28;20108;-60
2022/07/24 06:35:48;;;;;;;6.97;6.43;;;32.00;51.70;;;;;;5047856;28;20029;-61
2022/07/24 06:38:16;;;;;;;7.43;6.88;;;31.80;51.50;;;;;;5040768;28;20059;-60
2022/07/24 06:40:42;;;;;;;6.68;5.63;;;31.90;51.80;;;;;;5047812;28;20041;-60
2022/07/24 06:43:07;;;;;;;5.97;5.05;;;32.60;51.10;;;;;;5048052;28;20054;-60
2022/07/24 06:45:33;;;;;;;5.65;5.20;;;32.80;49.00;;;;;;5046567;28;20029;-60
2022/07/24 06:48:03;;;;;;;5.05;4.55;;;32.60;49.30;;;;;;5047679;28;20060;-60
2022/07/24 06:50:29;;;;;;;6.20;5.80;;;33.30;48.40;;;;;;5047932;28;20021;-60
2022/07/24 06:52:55;;;;;;;6.90;6.35;;;33.50;48.70;;;;;;5047593;28;20591;-60
2022/07/24 06:55:21;;;;;;;6.47;5.95;;;34.30;47.40;;;;;;5048123;28;20120;-60
2022/07/24 06:57:46;;;;;;;6.03;5.53;;;34.90;47.00;;;;;;5046895;28;20025;-60
2022/07/24 07:00:13;;;;;;;5.45;5.15;;;34.60;46.90;;;;;;5048067;28;20120;-60
2022/07/24 07:02:39;;;;;;;6.63;6.03;;;34.90;46.80;;;;;;5048064;28;20075;-60
2022/07/24 07:05:07;;;;;;;6.40;5.90;;;35.30;45.80;;;;;;5047556;28;20422;-60
2022/07/24 07:07:34;;;;;;;6.68;5.95;;;35.20;46.10;;;;;;5047495;28;20056;-60
2022/07/24 07:10:00;;;;;;;6.13;5.72;;;35.10;46.00;;;;;;5046644;28;20428;-60
2022/07/24 07:12:26;;;;;;;6.57;5.97;;;35.50;45.60;;;;;;5048577;28;20048;-60
2022/07/24 07:14:51;;;;;;;7.18;6.68;;;35.50;45.20;;;;;;5047220;28;20025;-60
2022/07/24 07:17:17;;;;;;;6.65;6.05;;;35.40;45.20;;;;;;5047651;28;20035;-60
2022/07/24 07:19:43;;;;;;;6.22;5.75;;;35.80;45.00;;;;;;5048115;28;20036;-60
2022/07/24 07:22:10;;;;;;;6.40;6.00;;;35.90;46.30;;;;;;5038578;28;20052;-60
2022/07/24 07:24:36;;;;;;;6.32;5.93;;;36.40;45.60;;;;;;5048475;28;20033;-60
2022/07/24 07:27:02;;;;;;;6.30;5.90;;;37.30;44.40;;;;;;5046433;28;20113;-60
2022/07/24 07:29:27;;;;;;;6.50;6.10;;;37.40;43.90;;;;;;5047558;28;20052;-60
2022/07/24 07:31:53;;;;;;;6.50;5.90;;;37.50;42.80;;;;;;5047475;28;20429;-60
2022/07/24 07:34:19;;;;;;;7.05;6.55;;;37.60;43.30;;;;;;5062789;28;21704;-61
2022/07/24 07:36:44;;;;;;;6.10;5.60;;;37.90;42.60;;;;;;5047939;28;20013;-60
2022/07/24 07:39:10;;;;;;;6.18;5.63;;;38.40;42.90;;;;;;5046927;28;20037;-61
2022/07/24 07:41:36;;;;;;;7.07;6.55;;;37.80;42.30;;;;;;5047557;28;20488;-60
2022/07/24 07:44:02;;;;;;;6.60;6.15;;;37.40;42.50;;;;;;5047073;28;20028;-60
2022/07/24 07:46:27;;;;;;;6.05;5.65;;;37.30;43.40;;;;;;5047644;28;20030;-61
2022/07/24 07:48:53;;;;;;;5.70;5.28;;;38.30;43.50;;;;;;5048135;28;20024;-61
2022/07/24 07:51:19;;;;;;;6.43;6.03;;;39.10;43.00;;;;;;5047623;28;20464;-61
2022/07/24 07:53:45;;;;;;;6.22;5.80;;;39.80;40.50;;;;;;5047599;28;20028;-60
2022/07/24 07:56:11;;;;;;;7.53;5.93;;;40.00;39.80;;;;;;5046365;28;20130;-60
2022/07/24 07:58:37;;;;;;;6.30;5.65;;;40.00;39.30;;;;;;5047982;28;20467;-61
2022/07/24 08:01:03;;;;;;;6.47;6.00;;;39.90;40.10;;;;;;5062328;28;20028;-61
2022/07/24 08:03:28;;;;;;;6.80;6.30;;;39.80;39.10;;;;;;5030291;28;20690;-61
2022/07/24 08:05:54;;;;;;;5.90;5.50;;;39.70;39.80;;;;;;5046992;28;20022;-60
2022/07/24 08:08:20;;;;;;;5.65;5.25;;;40.10;39.90;;;;;;5046846;28;20021;-61
2022/07/24 08:10:45;;;;;;;6.25;5.80;;;39.90;40.50;;;;;;5048775;28;20115;-61
2022/07/24 08:13:12;;;;;;;5.80;5.40;;;39.80;38.80;;;;;;5051296;28;20036;-61
2022/07/24 08:15:38;;;;;;;5.70;5.30;;;40.10;40.10;;;;;;5051462;28;20123;-60
2022/07/24 08:18:04;;;;;;;5.60;5.20;;;40.40;40.00;;;;;;5050559;28;20484;-60
2022/07/24 08:20:30;;;;;;;5.63;5.13;;;40.70;40.30;;;;;;5049866;28;20037;-61
2022/07/24 08:22:56;;;;;;;5.50;5.10;;;41.20;39.50;;;;;;5050892;28;20084;-61
2022/07/24 08:25:22;;;;;;;5.35;4.95;;;41.20;38.70;;;;;;5049638;28;20028;-61
2022/07/24 08:27:48;;;;;;;5.20;4.90;;;41.40;39.50;;;;;;5051146;28;20044;-61
2022/07/24 08:30:14;;;;;;;5.35;4.88;;;41.10;38.40;;;;;;5050316;28;20500;-60
2022/07/24 08:32:41;;;;;;;5.55;5.15;;;41.00;38.10;;;;;;5050431;28;20132;-60
2022/07/24 08:35:07;;;;;;;5.28;4.88;;;41.50;37.90;;;;;;5050672;28;20025;-60
2022/07/24 08:37:37;;;;;;;6.10;5.60;;;41.80;37.20;;;;;;5048176;28;20439;-61
2022/07/24 08:40:04;;;;;;;6.20;4.50;;;41.00;37.10;;;;;;5050333;28;20025;-61
2022/07/24 08:42:30;;;;;;;5.88;5.25;;;41.00;37.70;;;;;;5050234;28;20033;-61
2022/07/24 08:44:55;;;;;;;6.45;4.80;;;40.70;38.30;;;;;;5049558;28;20247;-61
2022/07/24 08:47:22;;;;;;;5.22;4.82;;;40.90;37.90;;;;;;5048704;28;20021;-61
2022/07/24 08:49:52;;;;;;;5.72;4.82;;;41.10;37.80;;;;;;5049668;28;20512;-61
2022/07/24 08:52:24;;;;;;;3.75;3.50;;;41.30;37.20;;;;;;5049834;28;20025;-61
2022/07/24 08:54:50;;;;;;;3.05;2.85;;;41.10;35.20;;;;;;5050681;28;20037;-60
2022/07/24 08:57:16;;;;;;;3.78;3.42;;;41.60;34.00;;;;;;5050269;28;20033;-60
2022/07/24 08:59:42;;;;;;;3.08;2.78;;;41.10;35.10;;;;;;5049904;28;20028;-61
2022/07/24 09:02:08;;;;;;;3.00;2.78;;;41.10;35.40;;;;;;5050458;28;20049;-61
2022/07/24 09:04:45;;;;;;;2.53;2.30;;;41.10;34.60;;;;;;5050370;28;20025;-60
2022/07/24 09:07:13;;;;;;;3.28;2.97;;;41.00;35.10;;;;;;5046663;28;20021;-61
2022/07/24 09:09:40;;;;;;;3.38;3.10;;;40.90;33.40;;;;;;5050846;28;20028;-61
2022/07/24 09:12:15;;;;;;;4.05;3.30;;;41.20;34.80;;;;;;5049964;28;20029;-60
2022/07/24 09:14:46;;;;;;;7.75;7.15;;;41.10;35.30;;;;;;5048982;28;20048;-60
2022/07/24 09:17:21;;;;;;;4.70;4.30;;;40.80;34.60;;;;;;5048477;28;20087;-61
2022/07/24 09:20:00;;;;;;;3.67;3.38;;;41.10;34.40;;;;;;5050516;28;20072;-60
2022/07/24 09:22:34;;;;;;;5.05;4.50;;;41.20;35.10;;;;;;5049676;28;20032;-60
2022/07/24 09:25:14;;;;;;;3.70;3.40;;;41.30;35.00;;;;;;5049526;28;20116;-61
2022/07/24 09:27:41;;;;;;;5.05;3.40;;;41.10;34.40;;;;;;5049745;28;20483;-61
2022/07/24 09:30:09;;;;;;;3.67;3.38;;;41.30;34.90;;;;;;5049470;28;20029;-61
2022/07/24 09:32:36;;;;;;;3.92;3.63;;;41.40;35.30;;;;;;5049922;28;20029;-61
2022/07/24 09:35:02;;;;;;;4.47;3.53;;;41.90;35.30;;;;;;5049463;28;20024;-60
2022/07/24 09:37:28;;;;;;;3.75;3.45;;;42.20;36.20;;;;;;5049143;28;20043;-60
2022/07/24 09:40:06;;;;;;;4.63;3.97;;;42.20;34.00;;;;;;5049471;28;20092;-61
2022/07/24 09:42:38;;;;;;;3.60;3.30;;;42.50;34.50;;;;;;5050825;28;20037;-61
2022/07/24 09:45:07;;;;;;;4.00;3.70;;;43.20;33.20;;;;;;5049434;28;20124;-61
2022/07/24 09:47:34;;;;;;;3.58;3.10;;;43.70;31.80;;;;;;5048555;28;20026;-61
2022/07/24 09:50:15;;;;;;;7.32;6.82;;;43.90;31.20;;;;;;5049746;28;20021;-61
2022/07/24 09:52:43;;;;;;;3.50;3.25;;;44.20;30.60;;;;;;5048609;28;20063;-61
2022/07/24 09:55:23;;;;;;;3.88;3.10;;;43.80;31.40;;;;;;5049330;28;20484;-61
2022/07/24 09:57:49;;;;;;;3.00;2.67;;;43.10;30.60;;;;;;5048895;28;20021;-61
2022/07/24 10:00:15;;;;;;;3.28;2.80;;;42.90;32.80;;;;;;5049693;28;20075;-61
2022/07/24 10:02:44;;;;;;;5.25;4.53;;;43.00;32.00;;;;;;5048885;28;20036;-60
2022/07/24 10:05:12;;;;;;;3.17;2.97;;;43.10;32.60;;;;;;5049113;28;20068;-60
2022/07/24 10:07:39;;;;;;;4.32;3.30;;;43.50;32.20;;;;;;5048563;28;20033;-60
2022/07/24 10:10:05;;;;;;;3.22;3.03;;;43.30;33.20;;;;;;5046893;28;20033;-60
2022/07/24 10:12:32;;;;;;;10.32;9.70;;;43.40;32.50;;;;;;5048648;28;20100;-60
2022/07/24 10:14:59;;;;;;;7.05;6.53;;;43.00;32.80;;;;;;5048213;28;20025;-60
2022/07/24 10:17:52;;;;;;;3.92;3.38;;;43.40;32.40;;;;;;5048296;28;20021;-60
2022/07/24 10:20:38;;;;;;;3.63;3.42;;;43.80;31.70;;;;;;5049635;28;20025;-61
2022/07/24 10:23:06;;;;;;;3.80;3.20;;;43.80;31.70;;;;;;5031837;28;20491;-61
2022/07/24 10:25:53;;;;;;;9.00;8.27;;;43.60;32.20;;;;;;5048102;28;20124;-61
2022/07/24 10:28:36;;;;;;;6.13;5.60;;;43.60;32.80;;;;;;5048954;28;20025;-61
2022/07/24 10:31:04;;;;;;;3.67;3.25;;;43.40;32.60;;;;;;5048842;28;20025;-60
2022/07/24 10:33:30;;;;;;;3.60;3.40;;;43.20;32.40;;;;;;5048601;28;20539;-60
2022/07/24 10:36:00;;;;;;;3.53;3.22;;;42.80;32.20;;;;;;5048910;28;20037;-61
2022/07/24 10:38:33;;;;;;;3.47;3.17;;;42.40;32.00;;;;;;5030667;28;20037;-61
2022/07/24 10:41:08;;;;;;;5.45;5.03;;;41.90;33.10;;;;;;5048664;28;20036;-60
2022/07/24 10:43:34;;;;;;;5.18;4.82;;;41.00;33.90;;;;;;5047233;28;20028;-60
2022/07/24 10:45:59;;;;;;;6.03;5.45;;;39.90;35.50;;;;;;5047874;28;20021;-60
2022/07/24 10:48:28;;;;;;;4.05;3.75;;;38.70;37.10;;;;;;5049300;28;20436;-60
2022/07/24 10:51:24;;;;;;;4.47;4.07;;;38.00;38.10;;;;;;5047804;28;20021;-60
2022/07/24 10:53:52;;;;;;;4.40;4.10;;;37.90;38.80;;;;;;5047814;28;20029;-60
2022/07/24 10:56:33;;;;;;;4.25;3.95;;;38.60;37.60;;;;;;5046230;28;20044;-60
2022/07/24 10:59:08;;;;;;;4.43;4.13;;;38.50;36.90;;;;;;5047308;28;20041;-60
2022/07/24 11:01:33;;;;;;;4.35;4.05;;;38.20;36.60;;;;;;5047553;28;20053;-60
2022/07/24 11:04:23;;;;;;;3.70;3.50;;;37.70;38.50;;;;;;5048599;28;20025;-60
2022/07/24 11:06:50;;;;;;;4.38;3.97;;;38.00;39.00;;;;;;5039488;28;20029;-59
2022/07/24 11:09:18;;;;;;;3.63;3.33;;;38.30;39.10;;;;;;5048773;28;20095;-60
2022/07/24 11:11:53;;;;;;;4.00;3.70;;;38.80;36.80;;;;;;5049048;28;20029;-59
2022/07/24 11:14:23;;;;;;;4.15;3.75;;;38.80;36.50;;;;;;5048182;28;20559;-59
2022/07/24 11:16:49;;;;;;;3.95;3.65;;;39.00;37.00;;;;;;5048062;28;20021;-59
2022/07/24 11:19:14;;;;;;;4.43;3.38;;;38.90;36.70;;;;;;5048043;28;20469;-60
2022/07/24 11:21:43;;;;;;;3.58;3.28;;;38.80;37.20;;;;;;5048490;28;20389;-59
2022/07/24 11:24:17;;;;;;;4.68;3.67;;;38.30;35.90;;;;;;5047829;28;20116;-59
2022/07/24 11:26:46;;;;;;;3.88;3.58;;;38.00;37.40;;;;;;5047842;28;20024;-59
2022/07/24 11:29:17;;;;;;;3.75;3.53;;;37.40;38.10;;;;;;5048031;28;20025;-59
2022/07/24 11:31:45;;;;;;;5.03;3.67;;;37.30;38.50;;;;;;5047368;28;20024;-59
2022/07/24 11:34:11;;;;;;;4.15;3.53;;;37.30;38.50;;;;;;5048348;28;20012;-59
2022/07/24 11:36:42;;;;;;;5.78;3.78;;;37.10;38.10;;;;;;5047743;28;20477;-59
2022/07/24 11:39:08;;;;;;;3.85;3.53;;;36.80;38.10;;;;;;5049474;28;20041;-59
2022/07/24 11:41:48;;;;;;;4.60;3.67;;;36.80;38.90;;;;;;5062913;28;20044;-59
2022/07/24 11:44:20;;;;;;;3.85;3.55;;;36.70;39.40;;;;;;5047929;28;20555;-59
2022/07/24 11:46:49;;;;;;;4.30;4.00;;;36.80;39.80;;;;;;5050092;28;20029;-59
2022/07/24 11:49:15;;;;;;;3.95;3.65;;;37.10;38.70;;;;;;5050646;28;20044;-60
2022/07/24 11:51:52;;;;;;;4.05;3.75;;;37.30;38.50;;;;;;5051404;28;20040;-59
2022/07/24 11:54:27;;;;;;;3.83;3.53;;;37.20;38.40;;;;;;5044230;28;20041;-59
2022/07/24 11:56:55;;;;;;;3.90;3.60;;;37.40;38.10;;;;;;5050981;28;20041;-59
2022/07/24 11:59:32;;;;;;;3.83;3.63;;;37.30;37.90;;;;;;5050636;28;20087;-59
2022/07/24 12:02:06;;;;;;;3.55;3.25;;;37.40;37.80;;;;;;5048857;28;20044;-59
2022/07/24 12:04:32;;;;;;;4.47;4.18;;;37.60;37.70;;;;;;5050794;28;20027;-59
2022/07/24 12:06:58;;;;;;;4.28;3.90;;;37.60;38.10;;;;;;5051350;28;20120;-60
2022/07/24 12:09:24;;;;;;;3.83;3.53;;;37.50;37.00;;;;;;5052057;28;20017;-59
2022/07/24 12:11:51;;;;;;;4.20;3.90;;;37.30;37.10;;;;;;5046595;28;20563;-59
2022/07/24 12:14:19;;;;;;;4.93;3.88;;;37.20;37.30;;;;;;5045892;28;20511;-59
2022/07/24 12:16:52;;;;;;;3.85;3.55;;;37.30;37.30;;;;;;5045442;28;20045;-59
2022/07/24 12:19:22;;;;;;;4.97;3.55;;;37.20;38.20;;;;;;5047680;28;20025;-59
2022/07/24 12:21:49;;;;;;;4.95;3.90;;;37.20;37.90;;;;;;5050782;28;20017;-59
2022/07/24 12:24:15;;;;;;;4.07;3.78;;;37.10;38.40;;;;;;5051286;28;20128;-59
2022/07/24 12:26:54;;;;;;;4.28;3.88;;;37.00;37.70;;;;;;5050324;28;20032;-59
2022/07/24 12:29:21;;;;;;;4.03;3.63;;;36.90;38.40;;;;;;5043347;28;20112;-59
2022/07/24 12:31:48;;;;;;;4.20;3.80;;;36.90;37.00;;;;;;5050645;28;20071;-59
2022/07/24 12:34:13;;;;;;;4.57;3.80;;;36.90;37.80;;;;;;5050175;28;20548;-59
2022/07/24 12:36:40;;;;;;;3.67;3.42;;;37.10;37.90;;;;;;5050684;28;20021;-59
2022/07/24 12:39:06;;;;;;;3.53;3.33;;;37.20;38.90;;;;;;5048942;28;20049;-59